createdAt,value
2023-05-03T00:00:47.289Z,1014.49
2023-05-03T00:01:47.357Z,1014.51
2023-05-03T00:02:47.395Z,1014.55
2023-05-03T00:03:47.301Z,1014.55
2023-05-03T00:04:47.314Z,1014.52
2023-05-03T00:05:47.526Z,1014.56
2023-05-03T00:06:47.353Z,1014.57
2023-05-03T00:07:47.326Z,1014.59
2023-05-03T00:08:47.301Z,1014.57
2023-05-03T00:09:47.302Z,1014.58
2023-05-03T00:10:47.307Z,1014.66
2023-05-03T00:11:47.311Z,1014.60
2023-05-03T00:12:47.310Z,1014.63
2023-05-03T00:13:47.314Z,1014.66
2023-05-03T00:14:47.310Z,1014.60
2023-05-03T00:15:47.340Z,1014.69
2023-05-03T00:16:47.347Z,1014.64
2023-05-03T00:17:47.343Z,1014.69
2023-05-03T00:18:48.459Z,1014.73
2023-05-03T00:19:47.342Z,1014.72
2023-05-03T00:20:47.325Z,1014.71
2023-05-03T00:21:47.332Z,1014.76
2023-05-03T00:22:47.328Z,1014.82
2023-05-03T00:23:47.338Z,1014.78
2023-05-03T00:24:47.332Z,1014.75
2023-05-03T00:25:47.336Z,1014.80
2023-05-03T00:26:47.333Z,1014.75
2023-05-03T00:27:47.354Z,1014.77
2023-05-03T00:28:47.340Z,1014.76
2023-05-03T00:29:47.346Z,1014.78
2023-05-03T00:30:47.377Z,1014.84
2023-05-03T00:31:47.388Z,1014.82
2023-05-03T00:32:47.401Z,1014.81
2023-05-03T00:33:47.366Z,1014.89
2023-05-03T00:34:47.356Z,1014.88
2023-05-03T00:35:47.364Z,1014.89
2023-05-03T00:36:47.368Z,1014.91
2023-05-03T00:37:47.363Z,1014.94
2023-05-03T00:38:47.363Z,1014.92
2023-05-03T00:39:47.374Z,1014.91
2023-05-03T00:40:47.367Z,1014.94
2023-05-03T00:41:47.387Z,1014.98
2023-05-03T00:42:47.369Z,1014.99
2023-05-03T00:43:47.376Z,1015.04
2023-05-03T00:44:47.398Z,1015.03
2023-05-03T00:45:47.380Z,1015.00
2023-05-03T00:46:47.420Z,1015.03
2023-05-03T00:47:47.437Z,1015.03
2023-05-03T00:48:47.398Z,1015.05
2023-05-03T00:49:47.406Z,1015.05
2023-05-03T00:50:47.384Z,1015.07
2023-05-03T00:51:47.393Z,1015.11
2023-05-03T00:52:47.390Z,1015.11
2023-05-03T00:53:47.403Z,1015.18
2023-05-03T00:54:47.391Z,1015.19
2023-05-03T00:55:47.395Z,1015.23
2023-05-03T00:56:51.636Z,1015.24
2023-05-03T00:57:47.402Z,1015.26
2023-05-03T00:58:47.405Z,1015.26
2023-05-03T00:59:47.406Z,1015.29
2023-05-03T01:00:47.408Z,1015.27
2023-05-03T01:01:47.420Z,1015.28
2023-05-03T01:02:47.482Z,1015.34
2023-05-03T01:03:47.534Z,1015.34
2023-05-03T01:04:47.416Z,1015.28
2023-05-03T01:05:47.422Z,1015.31
2023-05-03T01:06:47.507Z,1015.35
2023-05-03T01:07:47.416Z,1015.36
2023-05-03T01:08:47.418Z,1015.31
2023-05-03T01:09:47.423Z,1015.38
2023-05-03T01:10:47.423Z,1015.40
2023-05-03T01:11:47.432Z,1015.38
2023-05-03T01:12:47.419Z,1015.41
2023-05-03T01:13:47.426Z,1015.42
2023-05-03T01:14:47.432Z,1015.40
2023-05-03T01:15:47.455Z,1015.39
2023-05-03T01:16:47.432Z,1015.42
2023-05-03T01:17:47.509Z,1015.41
2023-05-03T01:18:47.436Z,1015.39
2023-05-03T01:19:47.464Z,1015.45
2023-05-03T01:20:47.444Z,1015.42
2023-05-03T01:21:47.440Z,1015.42
2023-05-03T01:22:47.460Z,1015.44
2023-05-03T01:23:47.449Z,1015.42
2023-05-03T01:24:47.448Z,1015.39
2023-05-03T01:25:47.447Z,1015.43
2023-05-03T01:26:47.455Z,1015.40
2023-05-03T01:27:47.476Z,1015.44
2023-05-03T01:28:47.480Z,1015.46
2023-05-03T01:29:47.464Z,1015.44
2023-05-03T01:30:47.532Z,1015.46
2023-05-03T01:31:47.524Z,1015.44
2023-05-03T01:32:47.513Z,1015.45
2023-05-03T01:33:47.462Z,1015.41
2023-05-03T01:34:47.461Z,1015.42
2023-05-03T01:35:47.494Z,1015.44
2023-05-03T01:36:47.465Z,1015.49
2023-05-03T01:37:47.477Z,1015.49
2023-05-03T01:38:47.471Z,1015.48
2023-05-03T01:39:47.490Z,1015.49
2023-05-03T01:40:47.480Z,1015.51
2023-05-03T01:41:47.485Z,1015.54
2023-05-03T01:42:47.479Z,1015.51
2023-05-03T01:43:47.482Z,1015.54
2023-05-03T01:44:47.484Z,1015.56
2023-05-03T01:45:47.510Z,1015.57
2023-05-03T01:46:47.496Z,1015.58
2023-05-03T01:47:47.535Z,1015.58
2023-05-03T01:48:47.493Z,1015.57
2023-05-03T01:49:47.496Z,1015.61
2023-05-03T01:50:47.506Z,1015.61
2023-05-03T01:51:47.521Z,1015.67
2023-05-03T01:52:47.500Z,1015.61
2023-05-03T01:53:47.509Z,1015.66
2023-05-03T01:54:47.505Z,1015.67
2023-05-03T01:55:47.508Z,1015.65
2023-05-03T01:56:47.507Z,1015.65
2023-05-03T01:57:47.511Z,1015.64
2023-05-03T01:58:47.511Z,1015.72
2023-05-03T01:59:47.521Z,1015.65
2023-05-03T02:00:47.524Z,1015.70
2023-05-03T02:01:47.528Z,1015.65
2023-05-03T02:02:47.538Z,1015.69
2023-05-03T02:03:47.829Z,1015.72
2023-05-03T02:04:47.632Z,1015.68
2023-05-03T02:05:47.532Z,1015.72
2023-05-03T02:06:47.646Z,1015.71
2023-05-03T02:07:47.566Z,1015.68
2023-05-03T02:08:47.536Z,1015.72
2023-05-03T02:09:47.533Z,1015.70
2023-05-03T02:10:47.534Z,1015.74
2023-05-03T02:11:47.540Z,1015.75
2023-05-03T02:12:47.541Z,1015.74
2023-05-03T02:13:47.544Z,1015.76
2023-05-03T02:14:47.544Z,1015.74
2023-05-03T02:15:47.548Z,1015.75
2023-05-03T02:16:47.585Z,1015.78
2023-05-03T02:17:47.621Z,1015.80
2023-05-03T02:18:47.549Z,1015.79
2023-05-03T02:19:47.552Z,1015.79
2023-05-03T02:20:47.562Z,1015.78
2023-05-03T02:21:47.555Z,1015.83
2023-05-03T02:22:47.571Z,1015.77
2023-05-03T02:23:47.745Z,1015.79
2023-05-03T02:24:47.559Z,1015.77
2023-05-03T02:25:47.566Z,1015.81
2023-05-03T02:26:47.559Z,1015.78
2023-05-03T02:27:47.566Z,1015.79
2023-05-03T02:28:47.567Z,1015.80
2023-05-03T02:29:47.570Z,1015.78
2023-05-03T02:30:47.609Z,1015.81
2023-05-03T02:31:47.583Z,1015.81
2023-05-03T02:32:47.614Z,1015.84
2023-05-03T02:33:47.825Z,1015.79
2023-05-03T02:34:47.582Z,1015.77
2023-05-03T02:35:47.607Z,1015.79
2023-05-03T02:36:47.590Z,1015.82
2023-05-03T02:37:47.605Z,1015.82
2023-05-03T02:38:47.615Z,1015.86
2023-05-03T02:39:47.629Z,1015.83
2023-05-03T02:40:47.590Z,1015.87
2023-05-03T02:41:47.596Z,1015.88
2023-05-03T02:42:47.594Z,1015.90
2023-05-03T02:43:47.596Z,1015.90
2023-05-03T02:44:47.602Z,1015.91
2023-05-03T02:45:47.621Z,1015.90
2023-05-03T02:46:47.623Z,1015.91
2023-05-03T02:47:47.629Z,1015.91
2023-05-03T02:48:47.609Z,1015.93
2023-05-03T02:49:47.606Z,1015.95
2023-05-03T02:50:47.610Z,1015.96
2023-05-03T02:51:47.640Z,1015.93
2023-05-03T02:52:47.618Z,1015.92
2023-05-03T02:53:47.610Z,1015.94
2023-05-03T02:54:47.613Z,1015.94
2023-05-03T02:55:47.638Z,1015.92
2023-05-03T02:56:47.611Z,1015.94
2023-05-03T02:57:47.634Z,1015.96
2023-05-03T02:58:47.617Z,1015.94
2023-05-03T02:59:47.624Z,1015.99
2023-05-03T03:00:47.625Z,1015.94
2023-05-03T03:01:47.657Z,1015.99
2023-05-03T03:02:47.680Z,1015.99
2023-05-03T03:03:47.716Z,1015.97
2023-05-03T03:04:47.629Z,1016.02
2023-05-03T03:05:47.626Z,1016.02
2023-05-03T03:06:47.777Z,1016.04
2023-05-03T03:07:47.653Z,1016.04
2023-05-03T03:08:47.635Z,1016.10
2023-05-03T03:09:47.637Z,1016.07
2023-05-03T03:10:47.638Z,1016.05
2023-05-03T03:11:47.677Z,1016.07
2023-05-03T03:12:47.644Z,1016.08
2023-05-03T03:13:47.652Z,1016.09
2023-05-03T03:14:47.648Z,1016.08
2023-05-03T03:15:47.681Z,1016.14
2023-05-03T03:16:47.647Z,1016.13
2023-05-03T03:17:47.706Z,1016.14
2023-05-03T03:18:47.807Z,1016.17
2023-05-03T03:19:47.669Z,1016.21
2023-05-03T03:20:47.659Z,1016.25
2023-05-03T03:21:47.659Z,1016.26
2023-05-03T03:22:47.663Z,1016.27
2023-05-03T03:23:47.666Z,1016.27
2023-05-03T03:24:47.673Z,1016.29
2023-05-03T03:25:47.669Z,1016.35
2023-05-03T03:26:47.669Z,1016.36
2023-05-03T03:27:47.697Z,1016.37
2023-05-03T03:28:47.673Z,1016.37
2023-05-03T03:29:47.675Z,1016.39
2023-05-03T03:30:47.679Z,1016.39
2023-05-03T03:31:47.732Z,1016.42
2023-05-03T03:32:47.745Z,1016.39
2023-05-03T03:33:47.684Z,1016.43
2023-05-03T03:34:47.686Z,1016.45
2023-05-03T03:35:47.694Z,1016.45
2023-05-03T03:36:47.691Z,1016.47
2023-05-03T03:37:47.702Z,1016.47
2023-05-03T03:38:47.697Z,1016.50
2023-05-03T03:39:47.700Z,1016.51
2023-05-03T03:40:47.695Z,1016.50
2023-05-03T03:41:47.699Z,1016.50
2023-05-03T03:42:47.707Z,1016.54
2023-05-03T03:43:47.737Z,1016.55
2023-05-03T03:44:47.698Z,1016.52
2023-05-03T03:45:47.709Z,1016.52
2023-05-03T03:46:47.789Z,1016.54
2023-05-03T03:47:47.748Z,1016.53
2023-05-03T03:48:47.763Z,1016.51
2023-05-03T03:49:47.720Z,1016.53
2023-05-03T03:50:47.723Z,1016.58
2023-05-03T03:51:47.718Z,1016.54
2023-05-03T03:52:47.720Z,1016.56
2023-05-03T03:53:47.724Z,1016.55
2023-05-03T03:54:47.722Z,1016.52
2023-05-03T03:55:47.729Z,1016.54
2023-05-03T03:56:47.730Z,1016.53
2023-05-03T03:57:47.750Z,1016.51
2023-05-03T03:58:47.736Z,1016.54
2023-05-03T03:59:47.752Z,1016.54
2023-05-03T04:00:47.735Z,1016.54
2023-05-03T04:01:47.754Z,1016.51
2023-05-03T04:02:47.939Z,1016.55
2023-05-03T04:03:47.964Z,1016.53
2023-05-03T04:04:47.744Z,1016.54
2023-05-03T04:05:47.754Z,1016.57
2023-05-03T04:06:47.893Z,1016.57
2023-05-03T04:07:47.773Z,1016.56
2023-05-03T04:08:47.757Z,1016.64
2023-05-03T04:09:47.748Z,1016.57
2023-05-03T04:10:47.751Z,1016.62
2023-05-03T04:11:47.776Z,1016.57
2023-05-03T04:12:47.756Z,1016.59
2023-05-03T04:13:47.757Z,1016.58
2023-05-03T04:14:47.757Z,1016.61
2023-05-03T04:15:47.799Z,1016.62
2023-05-03T04:16:47.796Z,1016.63
2023-05-03T04:17:47.788Z,1016.65
2023-05-03T04:18:47.781Z,1016.62
2023-05-03T04:19:47.768Z,1016.68
2023-05-03T04:20:47.782Z,1016.66
2023-05-03T04:21:47.772Z,1016.66
2023-05-03T04:22:47.776Z,1016.68
2023-05-03T04:23:47.774Z,1016.68
2023-05-03T04:24:47.780Z,1016.71
2023-05-03T04:25:47.780Z,1016.64
2023-05-03T04:26:47.784Z,1016.68
2023-05-03T04:27:47.787Z,1016.72
2023-05-03T04:28:47.790Z,1016.72
2023-05-03T04:29:47.787Z,1016.76
2023-05-03T04:30:47.918Z,1016.76
2023-05-03T04:31:47.836Z,1016.78
2023-05-03T04:32:47.864Z,1016.78
2023-05-03T04:33:47.793Z,1016.78
2023-05-03T04:34:49.563Z,1016.76
2023-05-03T04:35:47.793Z,1016.78
2023-05-03T04:36:47.796Z,1016.84
2023-05-03T04:37:47.799Z,1016.85
2023-05-03T04:38:47.800Z,1016.91
2023-05-03T04:39:47.807Z,1016.85
2023-05-03T04:40:47.806Z,1016.91
2023-05-03T04:41:47.805Z,1016.88
2023-05-03T04:42:47.810Z,1016.89
2023-05-03T04:43:47.808Z,1016.87
2023-05-03T04:44:47.816Z,1016.89
2023-05-03T04:45:48.059Z,1016.93
2023-05-03T04:46:50.266Z,1016.95
2023-05-03T04:47:47.897Z,1016.92
2023-05-03T04:48:47.814Z,1016.94
2023-05-03T04:49:47.822Z,1017.05
2023-05-03T04:50:47.838Z,1016.96
2023-05-03T04:51:47.834Z,1016.96
2023-05-03T04:52:47.837Z,1016.95
2023-05-03T04:53:47.829Z,1016.97
2023-05-03T04:54:47.831Z,1017.02
2023-05-03T04:55:47.833Z,1017.07
2023-05-03T04:56:47.858Z,1017.02
2023-05-03T04:57:47.837Z,1017.06
2023-05-03T04:58:47.835Z,1017.06
2023-05-03T04:59:47.859Z,1017.06
2023-05-03T05:00:47.860Z,1017.08
2023-05-03T05:01:47.876Z,1017.10
2023-05-03T05:02:47.947Z,1017.11
2023-05-03T05:03:47.988Z,1017.13
2023-05-03T05:04:47.847Z,1017.13
2023-05-03T05:05:47.860Z,1017.11
2023-05-03T05:06:47.932Z,1017.15
2023-05-03T05:07:47.891Z,1017.10
2023-05-03T05:08:47.872Z,1017.14
2023-05-03T05:09:47.855Z,1017.16
2023-05-03T05:10:47.866Z,1017.16
2023-05-03T05:11:47.865Z,1017.15
2023-05-03T05:12:47.865Z,1017.13
2023-05-03T05:13:47.867Z,1017.17
2023-05-03T05:14:47.870Z,1017.19
2023-05-03T05:15:47.864Z,1017.16
2023-05-03T05:16:47.936Z,1017.17
2023-05-03T05:17:48.048Z,1017.17
2023-05-03T05:18:48.583Z,1017.18
2023-05-03T05:19:47.903Z,1017.16
2023-05-03T05:20:47.886Z,1017.21
2023-05-03T05:21:47.879Z,1017.21
2023-05-03T05:22:47.875Z,1017.21
2023-05-03T05:23:47.889Z,1017.23
2023-05-03T05:24:47.875Z,1017.25
2023-05-03T05:25:47.897Z,1017.23
2023-05-03T05:26:47.886Z,1017.25
2023-05-03T05:27:47.885Z,1017.30
2023-05-03T05:28:47.892Z,1017.27
2023-05-03T05:29:47.911Z,1017.22
2023-05-03T05:30:47.894Z,1017.28
2023-05-03T05:31:47.945Z,1017.30
2023-05-03T05:32:47.907Z,1017.31
2023-05-03T05:33:47.896Z,1017.27
2023-05-03T05:34:47.899Z,1017.34
2023-05-03T05:35:47.977Z,1017.35
2023-05-03T05:36:47.908Z,1017.36
2023-05-03T05:37:47.925Z,1017.34
2023-05-03T05:38:47.916Z,1017.39
2023-05-03T05:39:47.911Z,1017.40
2023-05-03T05:40:47.920Z,1017.36
2023-05-03T05:41:47.913Z,1017.43
2023-05-03T05:42:47.914Z,1017.47
2023-05-03T05:43:47.922Z,1017.44
2023-05-03T05:44:47.924Z,1017.47
2023-05-03T05:45:47.939Z,1017.44
2023-05-03T05:46:47.997Z,1017.45
2023-05-03T05:47:47.966Z,1017.43
2023-05-03T05:48:47.924Z,1017.42
2023-05-03T05:49:47.957Z,1017.45
2023-05-03T05:50:47.932Z,1017.43
2023-05-03T05:51:47.953Z,1017.45
2023-05-03T05:52:47.941Z,1017.49
2023-05-03T05:53:47.982Z,1017.47
2023-05-03T05:54:47.943Z,1017.51
2023-05-03T05:55:47.940Z,1017.50
2023-05-03T05:56:47.941Z,1017.45
2023-05-03T05:57:47.945Z,1017.52
2023-05-03T05:58:47.951Z,1017.53
2023-05-03T05:59:47.953Z,1017.52
2023-05-03T06:00:47.957Z,1017.52
2023-05-03T06:01:48.002Z,1017.54
2023-05-03T06:02:48.119Z,1017.57
2023-05-03T06:03:47.959Z,1017.56
2023-05-03T06:04:47.986Z,1017.55
2023-05-03T06:05:48.013Z,1017.57
2023-05-03T06:06:48.065Z,1017.55
2023-05-03T06:07:47.993Z,1017.52
2023-05-03T06:08:47.968Z,1017.54
2023-05-03T06:09:47.971Z,1017.60
2023-05-03T06:10:47.980Z,1017.62
2023-05-03T06:11:47.981Z,1017.56
2023-05-03T06:12:47.981Z,1017.60
2023-05-03T06:13:47.983Z,1017.56
2023-05-03T06:15:01.390Z,1017.60
2023-05-03T06:15:47.999Z,1017.60
2023-05-03T06:16:47.999Z,1017.62
2023-05-03T06:17:48.057Z,1017.64
2023-05-03T06:18:47.994Z,1017.64
2023-05-03T06:19:47.988Z,1017.63
2023-05-03T06:20:47.995Z,1017.60
2023-05-03T06:21:47.996Z,1017.65
2023-05-03T06:22:47.999Z,1017.68
2023-05-03T06:23:48.026Z,1017.68
2023-05-03T06:24:47.999Z,1017.64
2023-05-03T06:25:48.000Z,1017.67
2023-05-03T06:26:48.006Z,1017.63
2023-05-03T06:27:48.002Z,1017.68
2023-05-03T06:28:48.014Z,1017.66
2023-05-03T06:29:48.055Z,1017.67
2023-05-03T06:30:48.031Z,1017.66
2023-05-03T06:31:48.032Z,1017.68
2023-05-03T06:32:48.042Z,1017.66
2023-05-03T06:33:48.166Z,1017.64
2023-05-03T06:34:48.018Z,1017.69
2023-05-03T06:35:48.021Z,1017.71
2023-05-03T06:36:48.026Z,1017.68
2023-05-03T06:37:48.026Z,1017.70
2023-05-03T06:38:48.031Z,1017.71
2023-05-03T06:39:48.060Z,1017.73
2023-05-03T06:40:48.025Z,1017.76
2023-05-03T06:41:48.029Z,1017.75
2023-05-03T06:42:48.032Z,1017.76
2023-05-03T06:43:48.033Z,1017.75
2023-05-03T06:44:48.035Z,1017.78
2023-05-03T06:45:48.039Z,1017.77
2023-05-03T06:46:48.088Z,1017.79
2023-05-03T06:47:48.091Z,1017.79
2023-05-03T06:48:48.067Z,1017.79
2023-05-03T06:49:48.053Z,1017.78
2023-05-03T06:50:48.052Z,1017.76
2023-05-03T06:51:48.049Z,1017.79
2023-05-03T06:52:48.051Z,1017.75
2023-05-03T06:53:48.055Z,1017.76
2023-05-03T06:54:48.064Z,1017.81
2023-05-03T06:55:48.104Z,1017.80
2023-05-03T06:56:48.078Z,1017.78
2023-05-03T06:57:48.064Z,1017.81
2023-05-03T06:58:48.114Z,1017.83
2023-05-03T06:59:48.066Z,1017.82
2023-05-03T07:00:48.068Z,1017.83
2023-05-03T07:01:48.090Z,1017.88
2023-05-03T07:02:48.119Z,1017.84
2023-05-03T07:03:48.147Z,1017.92
2023-05-03T07:04:48.076Z,1017.88
2023-05-03T07:05:48.080Z,1017.89
2023-05-03T07:06:55.914Z,1017.87
2023-05-03T07:07:48.086Z,1017.90
2023-05-03T07:08:48.083Z,1017.92
2023-05-03T07:09:48.096Z,1017.93
2023-05-03T07:10:48.093Z,1017.90
2023-05-03T07:11:48.326Z,1017.92
2023-05-03T07:12:48.113Z,1017.97
2023-05-03T07:13:48.090Z,1017.96
2023-05-03T07:14:48.098Z,1017.95
2023-05-03T07:15:48.147Z,1017.98
2023-05-03T07:16:48.134Z,1018.00
2023-05-03T07:17:48.166Z,1018.00
2023-05-03T07:18:48.100Z,1017.99
2023-05-03T07:19:48.102Z,1018.00
2023-05-03T07:20:48.107Z,1017.97
2023-05-03T07:21:48.104Z,1017.99
2023-05-03T07:22:48.108Z,1018.06
2023-05-03T07:23:48.113Z,1018.08
2023-05-03T07:24:48.136Z,1018.03
2023-05-03T07:25:48.112Z,1018.09
2023-05-03T07:26:49.093Z,1018.05
2023-05-03T07:27:48.139Z,1018.05
2023-05-03T07:28:48.219Z,1018.01
2023-05-03T07:29:48.133Z,1018.09
2023-05-03T07:30:48.119Z,1018.09
2023-05-03T07:31:48.129Z,1018.09
2023-05-03T07:32:48.243Z,1018.12
2023-05-03T07:33:48.196Z,1018.09
2023-05-03T07:34:48.127Z,1018.06
2023-05-03T07:35:48.135Z,1018.12
2023-05-03T07:36:48.139Z,1018.10
2023-05-03T07:37:48.138Z,1018.09
2023-05-03T07:38:48.140Z,1018.09
2023-05-03T07:39:48.151Z,1018.07
2023-05-03T07:40:48.145Z,1018.13
2023-05-03T07:41:48.149Z,1018.12
2023-05-03T07:42:48.172Z,1018.13
2023-05-03T07:43:48.173Z,1018.11
2023-05-03T07:44:48.150Z,1018.15
2023-05-03T07:45:48.188Z,1018.13
2023-05-03T07:46:48.156Z,1018.15
2023-05-03T07:47:48.211Z,1018.15
2023-05-03T07:48:48.181Z,1018.20
2023-05-03T07:49:48.162Z,1018.15
2023-05-03T07:50:48.169Z,1018.09
2023-05-03T07:51:48.167Z,1018.09
2023-05-03T07:52:48.169Z,1018.11
2023-05-03T07:53:48.170Z,1018.09
2023-05-03T07:54:48.180Z,1018.14
2023-05-03T07:55:48.172Z,1018.17
2023-05-03T07:56:48.173Z,1018.18
2023-05-03T07:57:48.183Z,1018.13
2023-05-03T07:58:50.989Z,1018.18
2023-05-03T07:59:48.325Z,1018.14
2023-05-03T08:00:48.182Z,1018.18
2023-05-03T08:01:48.184Z,1018.19
2023-05-03T08:02:48.310Z,1018.19
2023-05-03T08:03:48.422Z,1018.16
2023-05-03T08:04:48.327Z,1018.17
2023-05-03T08:05:48.369Z,1018.24
2023-05-03T08:06:48.332Z,1018.28
2023-05-03T08:07:48.196Z,1018.26
2023-05-03T08:08:48.204Z,1018.23
2023-05-03T08:09:48.200Z,1018.22
2023-05-03T08:10:48.204Z,1018.28
2023-05-03T08:11:48.203Z,1018.24
2023-05-03T08:12:48.215Z,1018.22
2023-05-03T08:13:48.205Z,1018.26
2023-05-03T08:14:48.217Z,1018.23
2023-05-03T08:15:48.280Z,1018.27
2023-05-03T08:16:48.216Z,1018.23
2023-05-03T08:17:48.234Z,1018.25
2023-05-03T08:18:48.229Z,1018.17
2023-05-03T08:19:48.221Z,1018.24
2023-05-03T08:20:48.225Z,1018.27
2023-05-03T08:21:48.240Z,1018.23
2023-05-03T08:22:48.223Z,1018.26
2023-05-03T08:23:48.232Z,1018.17
2023-05-03T08:24:48.233Z,1018.18
2023-05-03T08:25:48.236Z,1018.17
2023-05-03T08:26:48.245Z,1018.20
2023-05-03T08:27:48.245Z,1018.17
2023-05-03T08:28:48.242Z,1018.25
2023-05-03T08:29:48.242Z,1018.11
2023-05-03T08:30:48.255Z,1018.16
2023-05-03T08:31:48.352Z,1018.20
2023-05-03T08:32:48.272Z,1018.25
2023-05-03T08:33:48.253Z,1018.18
2023-05-03T08:34:48.256Z,1018.24
2023-05-03T08:35:49.381Z,1018.25
2023-05-03T08:36:48.258Z,1018.28
2023-05-03T08:37:48.261Z,1018.24
2023-05-03T08:38:48.262Z,1018.27
2023-05-03T08:39:48.265Z,1018.27
2023-05-03T08:40:48.277Z,1018.25
2023-05-03T08:41:48.268Z,1018.37
2023-05-03T08:42:48.276Z,1018.31
2023-05-03T08:43:48.279Z,1018.37
2023-05-03T08:44:48.278Z,1018.38
2023-05-03T08:45:48.273Z,1018.38
2023-05-03T08:46:48.382Z,1018.36
2023-05-03T08:47:48.406Z,1018.32
2023-05-03T08:48:48.281Z,1018.28
2023-05-03T08:49:48.281Z,1018.30
2023-05-03T08:50:48.287Z,1018.32
2023-05-03T08:51:48.287Z,1018.26
2023-05-03T08:52:48.288Z,1018.29
2023-05-03T08:53:48.290Z,1018.26
2023-05-03T08:54:48.297Z,1018.28
2023-05-03T08:55:48.316Z,1018.27
2023-05-03T08:56:48.308Z,1018.31
2023-05-03T08:57:48.307Z,1018.24
2023-05-03T08:58:48.299Z,1018.28
2023-05-03T08:59:48.302Z,1018.33
2023-05-03T09:00:48.307Z,1018.24
2023-05-03T09:01:48.385Z,1018.23
2023-05-03T09:02:48.335Z,1018.30
2023-05-03T09:03:49.478Z,1018.39
2023-05-03T09:04:48.321Z,1018.34
2023-05-03T09:05:48.309Z,1018.36
2023-05-03T09:06:48.355Z,1018.35
2023-05-03T09:07:48.319Z,1018.30
2023-05-03T09:08:48.338Z,1018.37
2023-05-03T09:09:48.325Z,1018.31
2023-05-03T09:10:48.323Z,1018.35
2023-05-03T09:11:48.325Z,1018.33
2023-05-03T09:12:48.328Z,1018.38
2023-05-03T09:13:48.333Z,1018.40
2023-05-03T09:14:48.332Z,1018.38
2023-05-03T09:15:48.350Z,1018.34
2023-05-03T09:16:48.439Z,1018.36
2023-05-03T09:17:48.375Z,1018.39
2023-05-03T09:18:48.366Z,1018.36
2023-05-03T09:19:48.384Z,1018.42
2023-05-03T09:20:48.347Z,1018.40
2023-05-03T09:21:48.356Z,1018.39
2023-05-03T09:22:48.355Z,1018.43
2023-05-03T09:23:48.352Z,1018.41
2023-05-03T09:24:48.356Z,1018.37
2023-05-03T09:25:48.356Z,1018.39
2023-05-03T09:26:48.353Z,1018.41
2023-05-03T09:27:48.366Z,1018.44
2023-05-03T09:28:48.366Z,1018.45
2023-05-03T09:29:48.415Z,1018.38
2023-05-03T09:30:48.375Z,1018.41
2023-05-03T09:31:48.433Z,1018.42
2023-05-03T09:32:48.434Z,1018.41
2023-05-03T09:33:48.379Z,1018.40
2023-05-03T09:34:48.375Z,1018.39
2023-05-03T09:35:48.407Z,1018.34
2023-05-03T09:36:48.381Z,1018.41
2023-05-03T09:37:48.384Z,1018.34
2023-05-03T09:38:48.385Z,1018.39
2023-05-03T09:39:48.388Z,1018.36
2023-05-03T09:40:48.416Z,1018.39
2023-05-03T09:41:48.402Z,1018.38
2023-05-03T09:42:48.395Z,1018.37
2023-05-03T09:43:48.401Z,1018.37
2023-05-03T09:44:48.399Z,1018.40
2023-05-03T09:45:48.424Z,1018.42
2023-05-03T09:46:48.405Z,1018.41
2023-05-03T09:47:48.462Z,1018.40
2023-05-03T09:48:48.410Z,1018.44
2023-05-03T09:49:48.415Z,1018.47
2023-05-03T09:50:48.409Z,1018.48
2023-05-03T09:51:48.448Z,1018.47
2023-05-03T09:52:48.418Z,1018.50
2023-05-03T09:53:48.418Z,1018.43
2023-05-03T09:54:48.420Z,1018.45
2023-05-03T09:55:48.428Z,1018.43
2023-05-03T09:56:48.429Z,1018.48
2023-05-03T09:57:48.435Z,1018.51
2023-05-03T09:58:48.447Z,1018.49
2023-05-03T09:59:48.441Z,1018.52
2023-05-03T10:00:50.269Z,1018.59
2023-05-03T10:01:48.573Z,1018.51
2023-05-03T10:02:48.494Z,1018.49
2023-05-03T10:03:48.488Z,1018.52
2023-05-03T10:04:48.448Z,1018.56
2023-05-03T10:05:48.458Z,1018.58
2023-05-03T10:06:48.490Z,1018.64
2023-05-03T10:07:48.482Z,1018.78
2023-05-03T10:08:48.453Z,1018.79
2023-05-03T10:09:48.634Z,1018.84
2023-05-03T10:10:48.462Z,1018.76
2023-05-03T10:11:48.467Z,1018.82
2023-05-03T10:12:48.469Z,1018.75
2023-05-03T10:13:48.471Z,1018.80
2023-05-03T10:14:48.621Z,1018.74
2023-05-03T10:15:48.532Z,1018.77
2023-05-03T10:16:48.485Z,1018.72
2023-05-03T10:17:48.822Z,1018.73
2023-05-03T10:18:48.480Z,1018.70
2023-05-03T10:19:48.481Z,1018.68
2023-05-03T10:20:48.502Z,1018.70
2023-05-03T10:21:48.487Z,1018.70
2023-05-03T10:22:48.490Z,1018.74
2023-05-03T10:23:48.683Z,1018.67
2023-05-03T10:24:48.491Z,1018.70
2023-05-03T10:25:48.497Z,1018.72
2023-05-03T10:26:48.494Z,1018.77
2023-05-03T10:27:48.500Z,1018.74
2023-05-03T10:28:48.505Z,1018.78
2023-05-03T10:29:48.515Z,1018.81
2023-05-03T10:30:48.516Z,1018.82
2023-05-03T10:31:48.757Z,1018.88
2023-05-03T10:32:48.550Z,1018.91
2023-05-03T10:33:48.509Z,1018.91
2023-05-03T10:34:48.514Z,1018.91
2023-05-03T10:35:48.515Z,1018.95
2023-05-03T10:36:49.865Z,1018.96
2023-05-03T10:37:48.520Z,1018.99
2023-05-03T10:38:48.529Z,1019.03
2023-05-03T10:39:48.589Z,1019.10
2023-05-03T10:40:48.530Z,1019.10
2023-05-03T10:41:48.529Z,1019.03
2023-05-03T10:42:48.525Z,1019.08
2023-05-03T10:43:48.531Z,1019.04
2023-05-03T10:44:48.531Z,1019.01
2023-05-03T10:45:49.007Z,1019.05
2023-05-03T10:46:48.633Z,1019.03
2023-05-03T10:47:48.619Z,1019.07
2023-05-03T10:48:48.563Z,1019.13
2023-05-03T10:49:48.549Z,1019.09
2023-05-03T10:50:48.546Z,1019.06
2023-05-03T10:51:48.554Z,1019.09
2023-05-03T10:52:48.543Z,1019.12
2023-05-03T10:53:48.552Z,1019.12
2023-05-03T10:54:48.653Z,1019.07
2023-05-03T10:55:48.792Z,1019.05
2023-05-03T10:56:48.558Z,1019.05
2023-05-03T10:57:48.564Z,1019.07
2023-05-03T10:58:48.566Z,1019.04
2023-05-03T10:59:48.569Z,1019.01
2023-05-03T11:00:48.566Z,1019.01
2023-05-03T11:01:48.577Z,1019.01
2023-05-03T11:02:48.594Z,1019.03
2023-05-03T11:03:48.572Z,1019.06
2023-05-03T11:04:48.634Z,1019.04
2023-05-03T11:05:48.583Z,1019.06
2023-05-03T11:06:48.647Z,1019.04
2023-05-03T11:07:48.591Z,1019.04
2023-05-03T11:08:48.608Z,1019.08
2023-05-03T11:09:48.589Z,1019.15
2023-05-03T11:10:48.605Z,1019.13
2023-05-03T11:11:48.630Z,1019.14
2023-05-03T11:12:48.620Z,1019.14
2023-05-03T11:13:48.702Z,1019.14
2023-05-03T11:14:48.604Z,1019.17
2023-05-03T11:15:48.706Z,1019.18
2023-05-03T11:16:48.683Z,1019.24
2023-05-03T11:17:48.652Z,1019.19
2023-05-03T11:18:48.649Z,1019.19
2023-05-03T11:19:48.608Z,1019.26
2023-05-03T11:20:48.617Z,1019.26
2023-05-03T11:21:48.739Z,1019.23
2023-05-03T11:22:48.634Z,1019.28
2023-05-03T11:23:48.629Z,1019.27
2023-05-03T11:24:48.633Z,1019.22
2023-05-03T11:25:48.630Z,1019.19
2023-05-03T11:26:48.624Z,1019.15
2023-05-03T11:27:48.660Z,1019.21
2023-05-03T11:28:48.641Z,1019.11
2023-05-03T11:29:48.884Z,1019.15
2023-05-03T11:30:48.641Z,1019.13
2023-05-03T11:31:48.672Z,1019.23
2023-05-03T11:32:48.722Z,1019.25
2023-05-03T11:33:48.645Z,1019.29
2023-05-03T11:34:48.647Z,1019.22
2023-05-03T11:35:48.655Z,1019.23
2023-05-03T11:36:48.652Z,1019.19
2023-05-03T11:37:48.658Z,1019.31
2023-05-03T11:38:48.657Z,1019.36
2023-05-03T11:39:48.673Z,1019.35
2023-05-03T11:40:48.659Z,1019.38
2023-05-03T11:41:48.667Z,1019.32
2023-05-03T11:42:48.673Z,1019.38
2023-05-03T11:43:55.127Z,1019.34
2023-05-03T11:44:48.687Z,1019.35
2023-05-03T11:45:48.697Z,1019.41
2023-05-03T11:46:49.077Z,1019.42
2023-05-03T11:47:48.698Z,1019.42
2023-05-03T11:48:48.684Z,1019.37
2023-05-03T11:49:48.690Z,1019.39
2023-05-03T11:50:48.698Z,1019.37
2023-05-03T11:51:52.599Z,1019.45
2023-05-03T11:52:48.692Z,1019.40
2023-05-03T11:53:48.703Z,1019.47
2023-05-03T11:54:48.702Z,1019.45
2023-05-03T11:55:48.707Z,1019.51
2023-05-03T11:56:49.163Z,1019.57
2023-05-03T11:57:48.714Z,1019.53
2023-05-03T11:58:48.718Z,1019.54
2023-05-03T11:59:48.756Z,1019.51
2023-05-03T12:00:48.744Z,1019.54
2023-05-03T12:01:48.747Z,1019.49
2023-05-03T12:02:48.887Z,1019.54
2023-05-03T12:03:48.913Z,1019.47
2023-05-03T12:04:48.959Z,1019.47
2023-05-03T12:05:49.564Z,1019.54